Time;durP1;ratioP1;P1;durP2;ratioP2;P2;SDS_P1;SDS_P2;PMS_P1;PMS_P2;Temp;Humidity;BMP_temperature;BMP_pressure;BME280_temperature;BME280_humidity;BME280_pressure;Samples;Min_cycle;Max_cycle;Signal;HPM_P1;HPM_P2
2021/12/20 00:01:33;;;;;;;6.03;4.10;;;7.60;99.90;;;;;;5031849;28;20558;-69
2021/12/20 00:04:00;;;;;;;8.83;4.50;;;7.60;99.90;;;;;;5014206;28;20250;-69
2021/12/20 00:06:27;;;;;;;6.43;3.87;;;7.60;99.90;;;;;;5026142;28;20207;-69
2021/12/20 00:08:55;;;;;;;8.70;3.80;;;7.60;99.90;;;;;;5025016;28;20195;-70
2021/12/20 00:11:22;;;;;;;7.80;4.30;;;7.70;99.90;;;;;;5040471;28;20186;-71
2021/12/20 00:13:49;;;;;;;11.87;4.93;;;7.70;99.90;;;;;;5024706;28;20238;-75
2021/12/20 00:16:18;;;;;;;9.03;3.87;;;7.60;99.90;;;;;;5016004;28;20199;-69
2021/12/20 00:18:45;;;;;;;8.20;4.27;;;7.60;99.90;;;;;;5027764;28;20214;-69
2021/12/20 00:21:13;;;;;;;9.67;4.30;;;7.60;99.90;;;;;;5029653;28;20214;-69
2021/12/20 00:23:42;;;;;;;9.13;4.30;;;7.70;99.90;;;;;;5028353;28;20190;-70
2021/12/20 00:26:10;;;;;;;12.60;4.17;;;7.60;99.90;;;;;;5021306;28;20206;-69
2021/12/20 00:28:38;;;;;;;10.53;4.57;;;7.70;99.90;;;;;;5024942;28;20199;-69
2021/12/20 00:31:05;;;;;;;10.80;4.33;;;7.60;99.90;;;;;;5031486;28;20202;-69
2021/12/20 00:33:34;;;;;;;9.20;3.93;;;7.60;99.90;;;;;;5045437;28;20215;-70
2021/12/20 00:36:03;;;;;;;8.30;4.13;;;7.60;99.90;;;;;;5019928;28;20194;-69
2021/12/20 00:41:15;;;;;;;14.13;4.87;;;7.60;99.90;;;;;;5029614;28;20201;-70
2021/12/20 00:43:43;;;;;;;11.90;4.43;;;7.60;99.90;;;;;;5037638;28;20191;-71
2021/12/20 00:46:10;;;;;;;10.67;3.87;;;7.60;99.90;;;;;;5022122;28;20218;-71
2021/12/20 00:48:39;;;;;;;9.83;3.50;;;7.60;99.90;;;;;;5022246;28;20200;-69
2021/12/20 00:51:07;;;;;;;10.20;3.60;;;7.60;99.90;;;;;;5026904;28;20207;-70
2021/12/20 00:53:34;;;;;;;7.43;3.17;;;7.60;99.90;;;;;;5020547;28;20237;-69
2021/12/20 00:56:01;;;;;;;13.30;4.20;;;7.70;99.90;;;;;;5016604;28;20222;-69
2021/12/20 00:58:29;;;;;;;11.07;4.10;;;7.70;99.90;;;;;;5040203;28;20203;-70
2021/12/20 01:00:58;;;;;;;11.07;4.00;;;7.70;99.90;;;;;;5015293;28;20210;-70
2021/12/20 01:03:29;;;;;;;10.33;4.33;;;7.70;99.90;;;;;;5032931;28;20198;-73
2021/12/20 01:05:58;;;;;;;12.30;3.70;;;7.60;99.90;;;;;;5015334;28;20210;-70
2021/12/20 01:08:28;;;;;;;10.43;3.73;;;7.60;99.90;;;;;;5021123;28;20677;-71
2021/12/20 01:10:56;;;;;;;10.97;3.70;;;7.70;99.90;;;;;;5016003;28;20203;-71
2021/12/20 01:13:28;;;;;;;9.73;3.60;;;7.80;99.90;;;;;;5035670;28;20207;-71
2021/12/20 01:15:59;;;;;;;10.40;3.97;;;7.70;99.90;;;;;;5013297;28;20689;-69
2021/12/20 01:18:27;;;;;;;11.23;3.97;;;7.70;99.90;;;;;;5020305;28;20199;-70
2021/12/20 01:20:54;;;;;;;12.47;3.20;;;7.60;99.90;;;;;;5020005;28;20191;-70
2021/12/20 01:23:23;;;;;;;16.83;4.20;;;7.70;99.90;;;;;;5030804;28;20195;-73
2021/12/20 01:25:50;;;;;;;7.27;3.33;;;7.60;99.90;;;;;;5039221;28;20214;-72
2021/12/20 01:28:18;;;;;;;12.37;3.40;;;7.80;99.90;;;;;;5032645;28;20594;-69
2021/12/20 01:30:45;;;;;;;10.87;3.73;;;7.70;99.90;;;;;;5022831;28;20669;-70
2021/12/20 01:33:13;;;;;;;11.63;4.03;;;7.70;99.90;;;;;;5024745;28;20557;-70
2021/12/20 01:35:42;;;;;;;11.00;3.57;;;7.60;99.90;;;;;;5031568;28;20688;-70
2021/12/20 01:38:09;;;;;;;10.93;3.30;;;7.60;99.90;;;;;;5029271;28;20207;-69
2021/12/20 01:40:39;;;;;;;11.33;3.87;;;7.60;99.90;;;;;;5013400;28;20548;-69
2021/12/20 01:43:09;;;;;;;10.73;3.13;;;7.70;99.90;;;;;;5036926;28;20209;-69
2021/12/20 01:45:36;;;;;;;15.40;3.20;;;7.70;99.90;;;;;;5014128;28;20223;-69
2021/12/20 01:48:07;;;;;;;13.53;3.27;;;7.80;99.90;;;;;;5028048;28;20202;-70
2021/12/20 01:51:11;;;;;;;9.00;2.53;;;7.80;99.90;;;;;;5044425;28;20197;-71
2021/12/20 01:53:39;;;;;;;8.17;2.93;;;7.90;99.90;;;;;;5020080;28;20213;-70
2021/12/20 01:56:09;;;;;;;10.33;3.47;;;8.10;99.90;;;;;;5033060;28;20203;-69
2021/12/20 01:59:02;;;;;;;13.97;2.93;;;8.10;99.90;;;;;;5014429;28;20557;-69
2021/12/20 02:01:29;;;;;;;10.10;3.33;;;8.10;99.90;;;;;;5020015;28;20199;-72
2021/12/20 02:04:00;;;;;;;10.53;2.77;;;8.10;99.90;;;;;;5015284;28;20215;-70
2021/12/20 02:06:33;;;;;;;11.83;2.57;;;8.10;99.90;;;;;;5015269;28;20198;-71
2021/12/20 02:09:04;;;;;;;14.60;3.43;;;8.10;99.90;;;;;;5039159;28;20198;-70
2021/12/20 02:11:36;;;;;;;6.90;2.30;;;8.10;99.90;;;;;;5027014;28;20195;-70
2021/12/20 02:14:04;;;;;;;11.23;3.33;;;8.10;99.90;;;;;;5019199;28;20234;-70
2021/12/20 02:16:31;;;;;;;13.10;3.20;;;8.10;99.90;;;;;;5023959;28;20201;-71
2021/12/20 02:19:02;;;;;;;13.50;3.13;;;8.10;99.90;;;;;;5023943;28;20210;-69
2021/12/20 02:21:32;;;;;;;18.33;3.70;;;8.10;99.90;;;;;;5038794;28;20557;-71
2021/12/20 02:23:59;;;;;;;14.63;2.90;;;8.10;99.90;;;;;;5026069;28;20222;-70
2021/12/20 02:26:27;;;;;;;10.87;2.80;;;8.10;99.90;;;;;;5039924;28;20194;-69
2021/12/20 02:28:57;;;;;;;12.40;3.47;;;8.10;99.90;;;;;;5018716;28;20553;-70
2021/12/20 02:37:30;;;;;;;10.63;3.00;;;8.00;99.90;;;;;;5032871;28;20187;-69
2021/12/20 02:39:57;;;;;;;11.83;3.33;;;7.90;99.90;;;;;;5033036;28;20556;-69
2021/12/20 02:42:30;;;;;;;12.83;3.20;;;8.00;99.90;;;;;;5026957;28;20203;-70
2021/12/20 02:45:12;;;;;;;13.77;3.33;;;8.00;99.90;;;;;;5014264;28;20238;-69
2021/12/20 02:47:43;;;;;;;13.43;3.37;;;8.00;99.90;;;;;;5039654;28;20262;-70
2021/12/20 02:50:11;;;;;;;11.53;3.87;;;7.90;99.90;;;;;;5021173;28;20726;-70
2021/12/20 02:52:41;;;;;;;12.60;3.30;;;7.90;99.90;;;;;;5021263;28;20210;-70
2021/12/20 02:55:10;;;;;;;17.77;3.63;;;7.90;99.90;;;;;;5021230;28;20226;-71
2021/12/20 02:57:39;;;;;;;9.33;3.13;;;7.90;99.90;;;;;;5032654;28;20198;-71
2021/12/20 03:00:10;;;;;;;16.57;3.63;;;7.80;99.90;;;;;;5017302;28;20199;-70
2021/12/20 03:02:52;;;;;;;13.77;3.43;;;7.90;99.90;;;;;;5028410;28;20707;-71
2021/12/20 03:05:20;;;;;;;8.27;3.20;;;7.70;99.90;;;;;;5027441;28;20221;-70
2021/12/20 03:07:53;;;;;;;9.03;3.13;;;7.70;99.90;;;;;;5035791;28;20195;-71
2021/12/20 03:10:21;;;;;;;12.20;3.60;;;7.70;99.90;;;;;;5017942;28;20195;-70
2021/12/20 03:12:50;;;;;;;13.23;3.10;;;7.60;99.90;;;;;;5032682;28;20191;-71
2021/12/20 03:15:22;;;;;;;10.63;3.23;;;7.60;99.90;;;;;;5021395;28;20211;-71
2021/12/20 03:17:52;;;;;;;8.97;3.63;;;7.60;99.90;;;;;;5013395;28;20235;-71
2021/12/20 03:20:21;;;;;;;19.00;3.27;;;7.50;99.90;;;;;;5036334;28;20186;-70
2021/12/20 03:22:51;;;;;;;11.20;3.17;;;7.50;99.90;;;;;;5016356;28;20206;-70
2021/12/20 03:25:19;;;;;;;12.80;3.33;;;7.50;99.90;;;;;;5027909;28;20210;-70
2021/12/20 03:27:46;;;;;;;10.20;2.80;;;7.50;99.90;;;;;;5025597;28;20203;-70
2021/12/20 03:30:14;;;;;;;10.00;3.27;;;7.50;99.90;;;;;;5029305;28;20694;-71
2021/12/20 03:32:42;;;;;;;13.20;2.77;;;7.50;99.90;;;;;;5036600;28;20198;-70
2021/12/20 03:35:11;;;;;;;10.93;3.33;;;7.50;99.90;;;;;;5043348;28;20225;-70
2021/12/20 03:37:39;;;;;;;9.83;3.17;;;7.50;99.90;;;;;;5023468;28;20206;-70
2021/12/20 03:40:10;;;;;;;13.43;3.70;;;7.60;99.90;;;;;;5042869;28;20202;-71
2021/12/20 03:42:41;;;;;;;11.77;4.37;;;7.70;99.90;;;;;;5015819;28;20204;-70
2021/12/20 03:45:10;;;;;;;13.37;3.20;;;7.80;99.90;;;;;;5040436;28;20211;-70
2021/12/20 03:47:37;;;;;;;10.20;3.10;;;7.70;99.90;;;;;;5036969;28;20771;-70
2021/12/20 03:50:15;;;;;;;12.80;3.50;;;7.60;99.90;;;;;;5039506;28;20194;-70
2021/12/20 03:52:43;;;;;;;10.87;3.70;;;7.80;99.90;;;;;;5015266;28;20199;-75
2021/12/20 03:55:14;;;;;;;12.80;2.93;;;7.90;99.90;;;;;;5040012;28;20222;-71
2021/12/20 03:57:41;;;;;;;10.73;2.93;;;7.90;99.90;;;;;;5047175;28;20194;-70
2021/12/20 04:00:13;;;;;;;9.20;3.27;;;7.90;99.90;;;;;;5026027;28;20205;-70
2021/12/20 04:02:47;;;;;;;14.37;3.53;;;7.80;99.90;;;;;;5038711;28;20195;-70
2021/12/20 04:05:16;;;;;;;16.93;3.40;;;7.70;99.90;;;;;;5018869;28;20699;-70
2021/12/20 04:07:44;;;;;;;13.20;3.40;;;7.60;99.90;;;;;;5021726;28;20207;-69
2021/12/20 04:10:13;;;;;;;10.73;3.83;;;7.50;99.90;;;;;;5016134;28;20211;-70
2021/12/20 04:12:40;;;;;;;18.67;3.93;;;7.40;99.90;;;;;;5019743;28;20198;-72
2021/12/20 04:15:08;;;;;;;13.20;3.03;;;7.60;99.90;;;;;;5018271;28;20234;-71
2021/12/20 04:17:36;;;;;;;11.50;3.70;;;7.60;99.90;;;;;;5016127;28;20206;-71
2021/12/20 04:20:04;;;;;;;13.10;3.40;;;7.60;99.90;;;;;;5039345;28;20194;-70
2021/12/20 04:22:32;;;;;;;10.17;3.23;;;7.50;99.90;;;;;;5041257;28;20198;-70
2021/12/20 04:25:04;;;;;;;14.83;3.47;;;7.40;99.90;;;;;;5028779;28;20314;-71
2021/12/20 04:27:40;;;;;;;9.40;3.13;;;7.40;99.90;;;;;;5027583;28;20210;-70
2021/12/20 04:30:10;;;;;;;15.97;3.70;;;7.40;99.90;;;;;;5017305;28;20206;-71
2021/12/20 04:32:39;;;;;;;12.27;3.60;;;7.40;99.90;;;;;;5020919;28;20222;-70
2021/12/20 04:35:07;;;;;;;13.97;3.50;;;7.40;99.90;;;;;;5028788;28;20231;-70
2021/12/20 04:37:35;;;;;;;13.27;3.50;;;7.30;99.90;;;;;;5034500;28;20211;-71
2021/12/20 04:40:07;;;;;;;10.33;3.77;;;7.40;99.90;;;;;;5030407;28;20688;-71
2021/12/20 04:42:35;;;;;;;11.63;3.97;;;7.50;99.90;;;;;;5040698;28;20187;-71
2021/12/20 04:45:05;;;;;;;14.00;3.67;;;7.70;99.90;;;;;;5026249;28;20211;-70
2021/12/20 04:47:32;;;;;;;9.13;3.60;;;7.60;99.90;;;;;;5017450;28;20195;-70
2021/12/20 04:50:10;;;;;;;14.73;3.60;;;7.60;99.90;;;;;;5025538;28;20691;-72
2021/12/20 04:52:37;;;;;;;11.67;3.30;;;7.50;99.90;;;;;;5036653;28;20216;-70
2021/12/20 04:55:05;;;;;;;13.73;3.20;;;7.60;99.90;;;;;;5027294;28;20231;-70
2021/12/20 04:57:33;;;;;;;11.00;3.43;;;7.70;99.90;;;;;;5027373;28;20205;-69
2021/12/20 05:00:00;;;;;;;14.80;4.00;;;7.70;99.90;;;;;;5035979;28;20220;-70
2021/12/20 05:02:29;;;;;;;11.80;3.90;;;7.80;99.90;;;;;;5033428;28;20199;-70
2021/12/20 05:04:56;;;;;;;12.63;3.93;;;7.80;99.90;;;;;;5034215;28;20207;-70
2021/12/20 05:07:26;;;;;;;14.27;3.97;;;7.80;99.90;;;;;;5034097;28;20183;-70
2021/12/20 05:09:58;;;;;;;18.53;4.10;;;7.70;99.90;;;;;;5034050;28;20190;-70
2021/12/20 05:12:25;;;;;;;11.70;4.30;;;7.80;99.90;;;;;;5016212;28;20806;-70
2021/12/20 05:14:52;;;;;;;10.57;3.40;;;7.60;99.90;;;;;;5015936;28;20229;-71
2021/12/20 05:17:20;;;;;;;14.90;4.23;;;7.70;99.90;;;;;;5037272;28;20213;-70
2021/12/20 05:19:49;;;;;;;13.77;4.57;;;7.60;99.90;;;;;;5035233;28;20194;-71
2021/12/20 05:22:16;;;;;;;14.73;3.97;;;7.50;99.90;;;;;;5034834;28;20195;-70
2021/12/20 05:24:44;;;;;;;14.40;4.40;;;7.60;99.90;;;;;;5016404;28;20229;-70
2021/12/20 05:27:12;;;;;;;16.80;3.60;;;7.60;99.90;;;;;;5015887;28;20207;-72
2021/12/20 05:29:39;;;;;;;13.93;4.20;;;7.60;99.90;;;;;;5015398;28;20203;-71
2021/12/20 05:32:08;;;;;;;15.23;3.63;;;7.60;99.90;;;;;;5015918;28;20210;-70
2021/12/20 05:34:35;;;;;;;16.47;4.07;;;7.50;99.90;;;;;;5033973;28;20688;-71
2021/12/20 05:37:05;;;;;;;18.07;4.97;;;7.50;99.90;;;;;;5013275;28;20211;-70
2021/12/20 05:39:32;;;;;;;13.57;4.07;;;7.60;99.90;;;;;;5035220;28;20205;-69
2021/12/20 05:42:00;;;;;;;13.87;3.93;;;7.70;99.90;;;;;;5022693;28;20206;-72
2021/12/20 05:44:41;;;;;;;13.23;3.90;;;7.40;99.90;;;;;;5042962;28;20588;-72
2021/12/20 05:47:23;;;;;;;15.30;4.60;;;7.20;99.90;;;;;;5024665;28;20191;-79
2021/12/20 05:49:50;;;;;;;20.40;4.70;;;7.20;99.90;;;;;;5022467;28;20687;-71
2021/12/20 05:52:19;;;;;;;14.30;4.13;;;7.20;99.90;;;;;;5026071;28;20195;-72
2021/12/20 05:54:46;;;;;;;18.83;4.37;;;7.20;99.90;;;;;;5032596;28;20210;-73
2021/12/20 05:57:33;;;;;;;15.83;4.37;;;7.20;99.90;;;;;;5035184;28;20206;-70
2021/12/20 06:00:00;;;;;;;12.50;3.90;;;7.00;99.90;;;;;;5035847;28;20191;-70
2021/12/20 06:02:28;;;;;;;11.10;3.57;;;7.00;99.90;;;;;;5020165;28;20687;-71
2021/12/20 06:04:55;;;;;;;17.13;4.20;;;6.90;99.90;;;;;;5024470;28;20226;-70
2021/12/20 06:07:26;;;;;;;12.10;4.43;;;6.90;99.90;;;;;;5014195;28;20210;-70
2021/12/20 06:09:54;;;;;;;16.77;4.60;;;6.70;99.90;;;;;;5033003;28;20205;-69
2021/12/20 06:12:21;;;;;;;14.50;4.47;;;6.70;99.90;;;;;;5026484;28;20664;-69
2021/12/20 06:14:55;;;;;;;13.70;4.63;;;6.50;99.90;;;;;;5035997;28;20230;-69
2021/12/20 06:17:22;;;;;;;12.83;4.00;;;6.30;99.90;;;;;;5015791;28;20213;-69
2021/12/20 06:19:50;;;;;;;15.07;4.67;;;6.30;99.90;;;;;;5023642;28;20207;-70
2021/12/20 06:22:18;;;;;;;14.03;4.13;;;6.20;99.90;;;;;;5033871;28;20189;-70
2021/12/20 06:24:47;;;;;;;14.83;4.20;;;6.10;99.90;;;;;;5006086;28;20219;-70
2021/12/20 06:27:14;;;;;;;16.20;4.57;;;6.10;99.90;;;;;;5017798;28;20205;-70
2021/12/20 06:29:41;;;;;;;16.67;4.17;;;5.90;99.90;;;;;;5032754;28;20199;-72
2021/12/20 06:32:09;;;;;;;14.70;4.73;;;5.90;99.90;;;;;;5050649;28;20672;-70
2021/12/20 06:34:39;;;;;;;16.07;4.47;;;5.90;99.90;;;;;;5034824;28;20221;-71
2021/12/20 06:37:07;;;;;;;18.33;4.30;;;5.90;99.90;;;;;;5035032;28;20225;-70
2021/12/20 06:39:34;;;;;;;19.47;4.50;;;5.80;99.90;;;;;;5048787;28;20208;-70
2021/12/20 06:42:03;;;;;;;21.00;4.80;;;5.80;99.90;;;;;;5025972;28;20208;-71
2021/12/20 06:44:30;;;;;;;19.13;4.53;;;5.60;99.90;;;;;;5051295;28;20222;-69
2021/12/20 06:46:58;;;;;;;17.77;4.47;;;5.70;99.90;;;;;;5034282;28;20216;-71
2021/12/20 06:49:26;;;;;;;14.13;4.10;;;5.60;99.90;;;;;;5034141;28;20205;-70
2021/12/20 06:51:56;;;;;;;13.63;4.27;;;5.60;99.90;;;;;;5020903;28;20201;-71
2021/12/20 06:54:23;;;;;;;16.07;5.60;;;5.60;99.90;;;;;;5039171;28;20217;-71
2021/12/20 06:56:50;;;;;;;19.93;5.00;;;5.50;99.90;;;;;;5032116;28;20217;-70
2021/12/20 06:59:22;;;;;;;13.80;4.30;;;5.40;99.90;;;;;;5025179;28;20195;-71
2021/12/20 07:01:50;;;;;;;18.73;4.63;;;5.50;99.90;;;;;;5011368;28;20207;-71
2021/12/20 07:04:17;;;;;;;16.93;4.97;;;5.40;99.90;;;;;;5018007;28;20225;-70
2021/12/20 07:06:45;;;;;;;19.83;4.47;;;5.50;99.90;;;;;;5037241;28;20178;-70
2021/12/20 07:09:12;;;;;;;17.97;5.70;;;5.30;99.90;;;;;;5014502;28;20198;-70
2021/12/20 07:11:59;;;;;;;12.80;3.80;;;5.30;99.90;;;;;;5032850;28;20194;-70
2021/12/20 07:14:28;;;;;;;18.50;4.27;;;5.40;99.90;;;;;;5036308;28;20228;-71
2021/12/20 07:16:55;;;;;;;21.33;4.43;;;5.40;99.90;;;;;;5017581;28;20218;-70
2021/12/20 07:19:23;;;;;;;16.07;4.70;;;5.40;99.90;;;;;;5052050;28;20193;-71
2021/12/20 07:21:50;;;;;;;16.33;4.43;;;5.40;99.90;;;;;;5042455;28;20213;-71
2021/12/20 07:24:18;;;;;;;13.60;4.53;;;5.40;99.90;;;;;;5014395;28;20225;-71
2021/12/20 07:26:45;;;;;;;15.73;4.93;;;5.30;99.90;;;;;;5014245;28;20208;-70
2021/12/20 07:29:23;;;;;;;15.73;4.97;;;5.20;99.90;;;;;;5016024;28;20208;-71
2021/12/20 07:31:52;;;;;;;15.63;4.47;;;5.20;99.90;;;;;;5038581;28;20201;-72
2021/12/20 07:34:19;;;;;;;19.73;5.37;;;5.00;99.90;;;;;;5019198;28;20228;-74
2021/12/20 07:36:47;;;;;;;15.90;4.13;;;4.90;99.90;;;;;;5022987;28;20239;-73
2021/12/20 07:39:14;;;;;;;12.83;4.50;;;4.90;99.90;;;;;;5024028;28;20196;-74
2021/12/20 07:41:42;;;;;;;14.40;4.73;;;5.00;99.90;;;;;;5008114;28;20201;-73
2021/12/20 07:44:09;;;;;;;14.67;4.87;;;4.90;99.90;;;;;;5039607;28;20230;-73
2021/12/20 07:46:44;;;;;;;20.80;5.10;;;4.80;99.90;;;;;;5030117;28;20201;-73
2021/12/20 07:49:12;;;;;;;16.57;4.93;;;4.80;99.90;;;;;;5029867;28;20224;-73
2021/12/20 07:51:40;;;;;;;15.77;4.90;;;4.80;99.90;;;;;;5003691;28;20210;-73
2021/12/20 07:54:07;;;;;;;12.77;4.47;;;4.80;99.90;;;;;;5027523;28;20694;-74
2021/12/20 07:56:35;;;;;;;13.40;4.17;;;4.70;99.90;;;;;;5026604;28;20660;-73
2021/12/20 07:59:03;;;;;;;13.40;4.13;;;4.70;99.90;;;;;;5013460;28;20193;-73
2021/12/20 08:01:49;;;;;;;12.57;3.80;;;4.80;99.90;;;;;;5014199;28;20209;-73
2021/12/20 08:04:18;;;;;;;12.50;4.30;;;4.80;99.90;;;;;;5035788;28;20224;-74
2021/12/20 08:06:46;;;;;;;15.70;4.97;;;4.90;99.90;;;;;;5037727;28;20192;-73
2021/12/20 08:09:14;;;;;;;10.17;4.50;;;5.00;99.90;;;;;;5021533;28;20205;-73
2021/12/20 08:11:41;;;;;;;16.73;4.60;;;5.10;99.90;;;;;;5017679;28;20201;-73
2021/12/20 08:14:09;;;;;;;16.30;4.83;;;5.00;99.90;;;;;;5017588;28;20228;-73
2021/12/20 08:16:36;;;;;;;14.07;4.83;;;5.10;99.90;;;;;;5017707;28;20201;-73
2021/12/20 08:19:04;;;;;;;16.23;5.70;;;5.10;99.90;;;;;;5017662;28;20202;-74
2021/12/20 08:21:33;;;;;;;14.00;4.60;;;5.20;99.90;;;;;;5017783;28;20197;-74
2021/12/20 08:24:00;;;;;;;15.13;4.37;;;5.20;99.90;;;;;;5017889;28;20235;-73
2021/12/20 08:26:28;;;;;;;16.70;5.50;;;5.10;99.90;;;;;;5035282;28;20204;-73
2021/12/20 08:29:23;;;;;;;11.30;4.93;;;5.20;99.90;;;;;;5017327;28;20193;-73
2021/12/20 08:31:51;;;;;;;11.90;4.80;;;5.10;99.90;;;;;;5017713;28;20215;-73
2021/12/20 08:34:19;;;;;;;16.83;5.37;;;4.90;99.90;;;;;;5017173;28;20229;-73
2021/12/20 08:36:47;;;;;;;17.30;4.37;;;5.00;99.90;;;;;;5032700;28;20208;-74
2021/12/20 08:39:19;;;;;;;9.53;4.60;;;5.10;99.90;;;;;;5020534;28;20210;-73
2021/12/20 08:41:47;;;;;;;8.73;4.03;;;5.20;99.90;;;;;;5008173;28;20206;-73
2021/12/20 08:44:15;;;;;;;13.03;4.70;;;5.40;99.90;;;;;;4997655;28;20226;-74
2021/12/20 08:46:42;;;;;;;15.07;5.30;;;5.60;99.90;;;;;;4997288;28;20207;-73
2021/12/20 08:49:09;;;;;;;16.37;5.80;;;5.70;99.90;;;;;;5014575;28;20203;-73
2021/12/20 08:51:37;;;;;;;22.17;5.93;;;5.70;99.90;;;;;;5016399;28;20201;-74
2021/12/20 08:54:07;;;;;;;14.53;4.77;;;5.60;99.90;;;;;;5034624;28;20221;-73
2021/12/20 08:56:35;;;;;;;15.77;5.17;;;5.60;99.90;;;;;;5025400;28;20679;-74
2021/12/20 08:59:02;;;;;;;16.30;5.70;;;5.60;99.90;;;;;;5035788;28;20689;-73
2021/12/20 09:01:29;;;;;;;14.87;5.93;;;5.70;99.90;;;;;;5036659;28;20579;-73
2021/12/20 09:03:57;;;;;;;16.27;6.13;;;5.80;99.90;;;;;;5021733;28;20226;-74
2021/12/20 09:06:25;;;;;;;15.20;5.67;;;5.80;99.90;;;;;;5016650;28;20198;-73
2021/12/20 09:08:54;;;;;;;16.63;6.53;;;5.80;99.90;;;;;;5034260;28;20658;-73
2021/12/20 09:11:27;;;;;;;20.27;6.93;;;5.90;99.90;;;;;;5016122;28;20207;-74
2021/12/20 09:13:54;;;;;;;17.60;6.20;;;6.00;99.90;;;;;;5027772;28;20204;-73
2021/12/20 09:16:22;;;;;;;18.97;7.27;;;6.10;99.90;;;;;;5015830;28;20205;-73
2021/12/20 09:18:49;;;;;;;21.47;7.50;;;6.10;99.90;;;;;;5016182;28;20571;-74
2021/12/20 09:21:17;;;;;;;12.43;6.57;;;6.20;99.90;;;;;;5034286;28;20194;-73
2021/12/20 09:23:44;;;;;;;14.13;5.97;;;6.50;99.90;;;;;;5016569;28;20199;-73
2021/12/20 09:26:18;;;;;;;17.50;6.67;;;6.60;99.90;;;;;;5032303;28;20206;-74
2021/12/20 09:28:47;;;;;;;17.97;6.80;;;6.50;99.90;;;;;;5015822;28;20207;-74
2021/12/20 09:31:15;;;;;;;18.50;6.77;;;6.60;99.90;;;;;;5028480;28;20213;-73
2021/12/20 09:33:42;;;;;;;19.43;7.10;;;6.80;99.90;;;;;;5017347;28;20210;-74
2021/12/20 09:36:12;;;;;;;19.13;7.50;;;6.80;99.90;;;;;;5016119;28;20195;-74
2021/12/20 09:38:40;;;;;;;17.73;7.97;;;7.10;99.90;;;;;;5033627;28;20213;-74
2021/12/20 09:41:28;;;;;;;18.03;7.07;;;7.20;99.90;;;;;;5010075;28;20199;-73
2021/12/20 09:43:59;;;;;;;19.57;7.00;;;7.30;99.90;;;;;;5025889;28;20207;-73
2021/12/20 09:46:29;;;;;;;15.50;6.57;;;7.20;99.90;;;;;;5021134;28;20198;-74
2021/12/20 09:48:57;;;;;;;20.27;6.70;;;7.30;99.90;;;;;;5015546;28;20198;-74
2021/12/20 09:51:25;;;;;;;20.43;7.10;;;7.20;99.90;;;;;;5019396;28;20191;-73
2021/12/20 09:57:08;;;;;;;21.60;7.77;;;7.50;99.90;;;;;;5014662;28;20201;-75
2021/12/20 09:59:38;;;;;;;17.93;6.90;;;7.60;99.90;;;;;;5019835;28;20689;-74
2021/12/20 10:02:08;;;;;;;16.47;6.87;;;7.60;99.90;;;;;;5023253;28;20557;-74
2021/12/20 10:04:35;;;;;;;21.07;7.47;;;7.70;99.90;;;;;;5020455;28;20218;-74
2021/12/20 10:07:04;;;;;;;17.03;7.33;;;7.90;99.90;;;;;;5017437;28;20206;-73
2021/12/20 10:09:34;;;;;;;19.93;6.60;;;7.70;99.90;;;;;;5014599;28;20199;-74
2021/12/20 10:12:14;;;;;;;18.90;7.13;;;7.70;99.90;;;;;;5016134;28;20210;-74
2021/12/20 10:14:58;;;;;;;23.47;7.40;;;7.50;99.90;;;;;;5014990;28;20657;-74
2021/12/20 10:17:29;;;;;;;21.33;7.07;;;7.60;99.90;;;;;;5012449;28;20208;-73
2021/12/20 10:20:11;;;;;;;22.50;6.50;;;7.80;99.90;;;;;;5015060;28;20199;-74
2021/12/20 10:22:39;;;;;;;14.73;5.50;;;8.00;99.90;;;;;;5014835;28;20218;-74
2021/12/20 10:25:25;;;;;;;11.90;5.27;;;8.40;99.90;;;;;;5016098;28;20215;-74
2021/12/20 10:27:53;;;;;;;19.17;5.97;;;8.40;99.90;;;;;;5030667;28;20672;-74
2021/12/20 10:30:25;;;;;;;14.63;5.53;;;8.50;99.90;;;;;;5024506;28;20533;-73
2021/12/20 10:32:54;;;;;;;17.27;5.43;;;8.90;99.90;;;;;;5021210;28;20205;-73
2021/12/20 10:35:37;;;;;;;16.80;5.10;;;9.00;99.90;;;;;;5026503;28;20218;-74
2021/12/20 10:41:53;;;;;;;15.97;5.30;;;9.50;99.90;;;;;;5038820;28;20178;-73
2021/12/20 10:44:24;;;;;;;21.10;6.37;;;10.00;99.90;;;;;;5001487;28;20576;-73
2021/12/20 10:46:54;;;;;;;17.83;5.27;;;9.90;99.90;;;;;;5013643;28;20226;-74
2021/12/20 10:49:27;;;;;;;15.13;5.17;;;10.60;99.90;;;;;;5011768;28;20665;-76
2021/12/20 10:51:55;;;;;;;17.77;5.57;;;11.30;99.90;;;;;;5018089;28;20552;-74
2021/12/20 10:54:29;;;;;;;16.57;5.50;;;11.40;99.90;;;;;;5042924;28;20214;-73
2021/12/20 10:57:00;;;;;;;17.93;5.67;;;12.00;99.50;;;;;;5016249;28;20195;-76
2021/12/20 10:59:30;;;;;;;13.13;6.03;;;12.30;98.60;;;;;;5011722;28;20215;-75
2021/12/20 11:05:23;;;;;;;15.60;6.77;;;12.20;97.50;;;;;;5073421;28;20621;-72
2021/12/20 11:10:41;;;;;;;18.37;6.63;;;12.30;97.80;;;;;;5062175;28;20190;-72
2021/12/20 11:13:16;;;;;;;20.60;7.20;;;11.80;97.90;;;;;;5044883;28;20214;-73
2021/12/20 11:16:26;;;;;;;16.48;6.93;;;12.80;96.80;;;;;;5043264;28;20221;-74
2021/12/20 11:19:18;;;;;;;14.00;6.43;;;13.20;95.30;;;;;;5058849;28;20198;-77
2021/12/20 11:21:51;;;;;;;15.68;6.55;;;13.80;94.80;;;;;;5042939;28;20239;-74
2021/12/20 11:24:20;;;;;;;18.38;6.45;;;13.80;94.00;;;;;;5054984;28;20226;-75
2021/12/20 11:26:48;;;;;;;17.80;6.28;;;14.10;93.20;;;;;;5065064;28;20203;-75
2021/12/20 11:29:15;;;;;;;14.95;6.47;;;14.10;92.60;;;;;;5031750;28;20665;-74
2021/12/20 11:31:44;;;;;;;13.88;5.68;;;14.30;91.90;;;;;;5041026;28;20203;-75
2021/12/20 11:34:11;;;;;;;13.00;5.57;;;14.50;91.30;;;;;;5058389;28;20214;-74
2021/12/20 11:36:39;;;;;;;12.93;5.38;;;13.80;91.30;;;;;;5041811;28;20210;-74
2021/12/20 11:39:09;;;;;;;12.45;5.20;;;14.10;90.60;;;;;;5044247;28;20207;-74
2021/12/20 11:41:45;;;;;;;15.98;5.60;;;14.30;90.30;;;;;;5038095;28;20194;-75
2021/12/20 11:44:40;;;;;;;14.52;6.30;;;14.40;90.30;;;;;;5051825;28;20222;-74
2021/12/20 11:47:30;;;;;;;18.92;6.18;;;14.10;89.90;;;;;;5035421;28;20235;-75
2021/12/20 11:50:02;;;;;;;13.65;5.22;;;14.70;86.90;;;;;;5031834;28;20198;-75
2021/12/20 11:52:32;;;;;;;13.48;6.03;;;14.60;84.30;;;;;;5044640;28;20195;-75
2021/12/20 11:55:14;;;;;;;15.15;5.20;;;15.20;82.50;;;;;;5044897;28;20215;-74
2021/12/20 11:57:54;;;;;;;14.43;5.32;;;15.30;80.10;;;;;;5040187;28;20203;-74
2021/12/20 12:00:30;;;;;;;10.65;4.63;;;15.10;79.30;;;;;;5041389;28;20201;-74
2021/12/20 12:03:02;;;;;;;17.75;5.00;;;14.80;78.30;;;;;;5033457;28;20963;-74
2021/12/20 12:05:33;;;;;;;12.38;5.07;;;15.70;74.90;;;;;;5043133;28;20222;-75
2021/12/20 12:08:41;;;;;;;11.02;4.40;;;15.80;73.50;;;;;;5041483;28;20210;-74
2021/12/20 12:11:30;;;;;;;8.20;4.05;;;15.50;71.80;;;;;;5044537;28;20198;-75
2021/12/20 12:17:02;;;;;;;14.18;4.32;;;15.80;69.10;;;;;;5032961;28;20205;-75
2021/12/20 12:19:45;;;;;;;11.55;3.75;;;16.20;65.50;;;;;;5034690;28;20254;-75
2021/12/20 12:22:38;;;;;;;9.15;3.72;;;16.50;64.00;;;;;;5035013;28;20548;-75
2021/12/20 12:25:08;;;;;;;9.32;4.18;;;16.80;62.10;;;;;;5033817;28;20223;-74
2021/12/20 12:27:40;;;;;;;9.25;3.95;;;16.70;60.90;;;;;;5041604;28;20675;-75
2021/12/20 12:30:34;;;;;;;8.55;3.97;;;16.80;60.50;;;;;;5024344;28;20254;-75
2021/12/20 12:33:45;;;;;;;9.38;3.50;;;15.50;59.30;;;;;;5024611;28;20191;-74
2021/12/20 12:36:31;;;;;;;4.60;2.97;;;15.70;58.00;;;;;;5032550;28;20195;-75
2021/12/20 12:39:09;;;;;;;8.45;3.17;;;16.50;56.90;;;;;;5033427;28;20672;-75
2021/12/20 12:42:16;;;;;;;6.53;3.08;;;17.20;55.90;;;;;;5022465;28;20191;-75
2021/12/20 12:44:52;;;;;;;7.30;3.45;;;16.90;55.10;;;;;;5022043;28;20234;-75
2021/12/20 12:47:35;;;;;;;8.27;3.20;;;16.60;53.00;;;;;;5024567;28;20201;-75
2021/12/20 12:50:03;;;;;;;4.75;2.63;;;17.00;52.90;;;;;;5031109;28;20203;-75
2021/12/20 12:52:39;;;;;;;6.63;2.50;;;17.10;51.10;;;;;;5026685;28;20199;-75
2021/12/20 12:55:13;;;;;;;7.30;2.72;;;16.20;51.30;;;;;;5038283;28;20268;-75
2021/12/20 12:57:41;;;;;;;8.93;2.97;;;16.90;51.70;;;;;;5017522;28;20191;-75
2021/12/20 13:00:34;;;;;;;6.82;2.40;;;16.30;50.70;;;;;;5027910;28;20203;-75
2021/12/20 13:03:16;;;;;;;7.43;2.33;;;16.20;50.30;;;;;;5028454;28;20210;-75
2021/12/20 13:05:44;;;;;;;6.10;2.10;;;15.70;51.50;;;;;;5018599;28;20580;-75
2021/12/20 13:08:13;;;;;;;5.60;2.45;;;16.40;50.90;;;;;;5029214;28;20203;-75
2021/12/20 13:10:43;;;;;;;5.70;1.92;;;16.90;50.70;;;;;;5030359;28;20206;-75
2021/12/20 13:13:16;;;;;;;6.05;2.45;;;17.40;49.30;;;;;;5019545;28;20195;-75
2021/12/20 13:15:53;;;;;;;5.93;2.33;;;17.30;47.90;;;;;;5029533;28;20214;-75
2021/12/20 13:18:31;;;;;;;4.30;2.30;;;17.30;47.00;;;;;;5026590;28;20194;-75
2021/12/20 13:21:08;;;;;;;4.47;1.70;;;17.60;47.60;;;;;;5035308;28;20665;-76
2021/12/20 13:23:39;;;;;;;5.32;1.90;;;17.20;47.70;;;;;;5030433;28;20183;-75
2021/12/20 13:26:11;;;;;;;3.70;1.45;;;16.70;47.80;;;;;;5025277;28;20210;-76
2021/12/20 13:28:41;;;;;;;3.38;1.77;;;17.20;46.70;;;;;;5041198;28;20195;-75
2021/12/20 13:31:12;;;;;;;4.25;1.58;;;17.20;45.80;;;;;;5022194;28;20195;-75